Time;durP1;ratioP1;P1;durP2;ratioP2;P2;SDS_P1;SDS_P2;PMS_P1;PMS_P2;Temp;Humidity;BMP_temperature;BMP_pressure;BME280_temperature;BME280_humidity;BME280_pressure;Samples;Min_cycle;Max_cycle;Signal;HPM_P1;HPM_P2
2022/01/04 00:00:55;;;;;;;2.72;1.70;;;;;;;6.88;77.57;97977.52;1809069;79;21001;-41
2022/01/04 00:03:22;;;;;;;3.05;1.92;;;;;;;6.93;77.56;97977.75;1808630;79;21140;-41
2022/01/04 00:05:48;;;;;;;2.85;1.70;;;;;;;6.95;77.55;97982.22;1808817;79;20922;-41
2022/01/04 00:08:15;;;;;;;2.42;1.50;;;;;;;6.90;77.66;97981.20;1808866;79;21037;-41
2022/01/04 00:10:44;;;;;;;3.62;1.52;;;;;;;6.87;77.81;97984.63;1808712;79;21017;-41
2022/01/04 00:13:25;;;;;;;2.12;1.50;;;;;;;6.89;77.85;97983.68;1808981;79;21017;-41
2022/01/04 00:15:56;;;;;;;2.50;1.67;;;;;;;6.94;77.75;97986.05;1808839;79;21948;-42
2022/01/04 00:18:24;;;;;;;3.05;2.22;;;;;;;6.95;77.76;97994.34;1808771;79;21009;-41
2022/01/04 00:20:53;;;;;;;2.50;1.40;;;;;;;6.92;77.83;98000.47;1808717;79;21024;-41
2022/01/04 00:23:20;;;;;;;2.15;1.30;;;;;;;6.89;77.84;98004.66;1808648;79;20969;-42
2022/01/04 00:25:48;;;;;;;3.77;1.47;;;;;;;6.91;77.80;97998.34;1802805;79;21547;-41
2022/01/04 00:28:15;;;;;;;2.67;1.50;;;;;;;6.93;77.77;98008.73;1797304;79;21809;-41
2022/01/04 00:30:42;;;;;;;3.22;1.70;;;;;;;6.90;77.86;98013.52;1797368;79;21005;-41
2022/01/04 00:33:12;;;;;;;2.80;1.80;;;;;;;6.84;78.07;98004.98;1797102;79;20942;-41
2022/01/04 00:35:39;;;;;;;;;;;;;;;6.80;78.20;98011.48;1799981;79;21428;-41
2022/01/04 00:40:38;;;;;;;4.00;1.60;;;;;;;6.77;78.41;98013.57;1830980;78;22520;-40
2022/01/04 00:43:05;;;;;;;3.10;1.95;;;;;;;6.64;78.74;98021.09;1801558;79;21559;-41
2022/01/04 00:45:32;;;;;;;2.72;1.80;;;;;;;6.66;78.73;98016.69;1784326;80;21158;-40
2022/01/04 00:50:29;;;;;;;3.47;1.70;;;;;;;6.73;78.44;98018.14;1784150;80;20924;-40
2022/01/04 00:52:56;;;;;;;3.98;1.80;;;;;;;6.72;78.38;98010.63;1784239;80;20936;-41
2022/01/04 00:55:24;;;;;;;2.90;1.80;;;;;;;6.71;78.45;98012.33;1784083;80;21881;-41
2022/01/04 00:57:50;;;;;;;1.90;1.40;;;;;;;6.72;78.45;98022.75;1784283;80;21780;-40
2022/01/04 01:00:18;;;;;;;2.42;1.47;;;;;;;6.77;78.37;98027.03;1783966;80;20995;-40
2022/01/04 01:02:45;;;;;;;3.70;1.90;;;;;;;6.79;78.34;98019.34;1784242;80;20939;-40
2022/01/04 01:05:11;;;;;;;2.60;1.77;;;;;;;6.77;78.42;98014.91;1784084;80;21011;-40
2022/01/04 01:07:38;;;;;;;2.40;1.85;;;;;;;6.72;78.52;98024.09;1784396;80;21519;-40
2022/01/04 01:12:45;;;;;;;2.50;1.70;;;;;;;6.79;78.43;98020.69;1784121;80;21651;-41
2022/01/04 01:15:14;;;;;;;1.90;1.60;;;;;;;6.80;78.36;98028.98;1784108;80;21486;-40
2022/01/04 01:17:41;;;;;;;3.00;1.57;;;;;;;6.79;78.40;98031.47;1784125;80;21023;-40
2022/01/04 01:20:09;;;;;;;2.15;1.57;;;;;;;6.75;78.37;98026.61;1784178;80;21039;-40
2022/01/04 01:22:36;;;;;;;5.72;1.57;;;;;;;6.72;78.41;98027.36;1784119;80;21133;-40
2022/01/04 01:25:05;;;;;;;2.22;1.60;;;;;;;6.74;78.39;98034.48;1783937;80;20995;-41
2022/01/04 01:27:33;;;;;;;1.72;1.50;;;;;;;6.74;78.44;98038.52;1784229;80;21027;-40
2022/01/04 01:29:59;;;;;;;1.42;1.20;;;;;;;6.71;78.51;98032.53;1784193;80;20944;-40
2022/01/04 01:32:26;;;;;;;2.22;1.37;;;;;;;6.70;78.58;98037.14;1784348;80;21040;-41
2022/01/04 01:34:52;;;;;;;1.90;1.37;;;;;;;6.72;78.53;98038.91;1784462;80;21823;-40
2022/01/04 01:37:19;;;;;;;2.83;1.55;;;;;;;6.75;78.49;98038.73;1783968;80;21656;-40
2022/01/04 01:39:47;;;;;;;3.10;1.10;;;;;;;6.73;78.54;98032.95;1778250;80;21511;-40
2022/01/04 01:42:14;;;;;;;1.92;1.25;;;;;;;6.67;78.63;98038.45;1773544;80;21076;-40
2022/01/04 01:44:42;;;;;;;1.98;1.50;;;;;;;6.66;78.74;98046.31;1773483;79;21010;-41
2022/01/04 01:47:09;;;;;;;2.05;1.30;;;;;;;6.68;78.71;98054.81;1773325;80;21078;-41
2022/01/04 01:49:36;;;;;;;4.58;1.52;;;;;;;6.66;78.76;98051.13;1773652;80;20924;-41
2022/01/04 01:52:04;;;;;;;1.47;1.27;;;;;;;6.62;78.83;98049.53;1772857;80;21079;-41
2022/01/04 01:54:31;;;;;;;1.60;1.17;;;;;;;6.62;78.84;98050.88;1773091;81;20988;-39
2022/01/04 01:56:58;;;;;;;1.17;0.80;;;;;;;6.64;78.59;98055.31;1772922;81;21539;-40
2022/01/04 01:59:25;;;;;;;2.02;1.17;;;;;;;6.67;78.45;98055.95;1772912;81;21163;-40
2022/01/04 02:01:53;;;;;;;1.35;0.98;;;;;;;6.65;78.33;98058.22;1772879;81;20921;-40
2022/01/04 02:04:19;;;;;;;2.55;0.72;;;;;;;6.63;78.26;98058.61;1773102;81;21805;-40
2022/01/04 02:06:46;;;;;;;1.42;0.60;;;;;;;6.63;78.07;98041.67;1772866;81;21019;-41
2022/01/04 02:09:12;;;;;;;0.65;0.60;;;;;;;6.63;77.53;98057.26;1772741;81;21016;-40
2022/01/04 02:11:39;;;;;;;1.70;0.82;;;;;;;6.61;77.37;98052.02;1772883;81;21885;-41
2022/01/04 02:14:06;;;;;;;1.87;0.60;;;;;;;6.55;77.30;98052.90;1772678;81;20972;-40
2022/01/04 02:16:33;;;;;;;1.98;0.72;;;;;;;6.50;77.23;98048.61;1772905;80;20997;-40
2022/01/04 02:19:05;;;;;;;1.45;0.72;;;;;;;6.48;77.18;98049.56;1772797;81;21056;-40
2022/01/04 02:21:36;;;;;;;2.22;0.82;;;;;;;6.50;76.87;98054.56;1772949;81;21083;-40
2022/01/04 02:24:04;;;;;;;1.80;0.95;;;;;;;6.49;76.85;98053.00;1772908;81;21085;-40
2022/01/04 02:26:31;;;;;;;1.32;0.40;;;;;;;6.43;76.84;98055.82;1772737;81;21602;-40
2022/01/04 02:29:01;;;;;;;3.10;1.15;;;;;;;6.38;76.90;98052.88;1772867;81;20968;-40
2022/01/04 02:31:28;;;;;;;2.37;1.00;;;;;;;6.40;76.89;98045.77;1772776;80;21534;-40
2022/01/04 02:33:55;;;;;;;2.47;1.02;;;;;;;6.42;76.95;98042.92;1772915;81;21000;-41
2022/01/04 02:36:22;;;;;;;3.75;1.20;;;;;;;6.40;77.00;98051.92;1772821;80;21805;-40
2022/01/04 02:38:51;;;;;;;1.30;0.68;;;;;;;6.39;77.03;98051.71;1772696;81;21079;-40
2022/01/04 02:41:19;;;;;;;3.20;1.10;;;;;;;6.40;76.95;98054.61;1791265;80;21019;-40
2022/01/04 02:43:45;;;;;;;1.20;0.82;;;;;;;6.43;76.94;98053.12;1803025;78;21033;-40
2022/01/04 02:46:12;;;;;;;1.32;0.80;;;;;;;6.44;77.00;98059.48;1823805;78;21021;-40
2022/01/04 02:48:43;;;;;;;1.40;0.90;;;;;;;6.44;77.06;98061.39;1823852;78;21483;-40
2022/01/04 02:51:11;;;;;;;2.20;1.05;;;;;;;6.45;77.13;98052.18;1823661;78;20913;-40
2022/01/04 02:53:37;;;;;;;2.80;1.02;;;;;;;6.50;77.19;98063.98;1823732;78;20964;-41
2022/01/04 02:56:05;;;;;;;2.77;1.10;;;;;;;6.52;77.29;98065.19;1823652;78;20960;-40
2022/01/04 02:58:32;;;;;;;1.67;1.00;;;;;;;6.52;77.38;98059.80;1823772;78;21087;-40
2022/01/04 03:00:58;;;;;;;1.95;1.10;;;;;;;6.51;77.50;98058.81;1823879;78;21859;-40
2022/01/04 03:03:25;;;;;;;2.70;1.27;;;;;;;6.47;77.76;98058.77;1791465;78;21000;-40
2022/01/04 03:05:52;;;;;;;3.33;1.30;;;;;;;6.47;77.93;98064.16;1823720;78;20999;-40
2022/01/04 03:08:20;;;;;;;3.77;1.67;;;;;;;6.47;78.04;98061.46;1823687;78;20971;-40
2022/01/04 03:10:47;;;;;;;2.62;1.45;;;;;;;6.42;78.24;98060.99;1823783;78;21506;-40
2022/01/04 03:13:16;;;;;;;3.02;1.50;;;;;;;6.39;78.41;98059.04;1823583;78;21151;-40
2022/01/04 03:15:45;;;;;;;3.70;1.60;;;;;;;6.38;78.42;98062.30;1823914;78;20964;-41
2022/01/04 03:18:12;;;;;;;3.15;1.77;;;;;;;6.41;78.37;98056.74;1823848;78;21001;-40
2022/01/04 03:20:40;;;;;;;3.98;1.77;;;;;;;6.44;78.47;98055.44;1823731;78;20960;-40
2022/01/04 03:23:10;;;;;;;3.33;2.08;;;;;;;6.43;78.52;98050.44;1823546;78;21005;-40
2022/01/04 03:25:36;;;;;;;4.03;2.10;;;;;;;6.43;78.50;98055.82;1823711;78;21137;-40
2022/01/04 03:28:04;;;;;;;3.67;2.10;;;;;;;6.44;78.46;98068.12;1823691;78;21005;-40
2022/01/04 03:30:34;;;;;;;3.23;2.40;;;;;;;6.44;78.40;98068.90;1824007;78;20956;-40
2022/01/04 03:33:01;;;;;;;4.47;2.72;;;;;;;6.42;78.48;98073.89;1823826;78;21186;-40
2022/01/04 03:35:28;;;;;;;3.95;2.20;;;;;;;6.37;78.56;98068.81;1823684;78;21032;-40
2022/01/04 03:37:55;;;;;;;3.58;2.40;;;;;;;6.32;78.72;98070.47;1823975;78;21474;-40
2022/01/04 03:40:22;;;;;;;4.30;2.65;;;;;;;6.31;78.83;98075.64;1813637;78;21001;-40
2022/01/04 03:42:49;;;;;;;6.20;3.30;;;;;;;6.30;78.84;98081.37;1804546;79;21507;-40
2022/01/04 03:45:16;;;;;;;5.67;3.40;;;;;;;6.27;78.96;98085.58;1804491;79;21012;-40
2022/01/04 03:47:43;;;;;;;5.67;3.17;;;;;;;6.25;79.00;98083.80;1804562;79;21041;-40
2022/01/04 03:50:10;;;;;;;4.60;2.87;;;;;;;6.28;78.93;98081.75;1804524;79;21125;-40
2022/01/04 03:52:37;;;;;;;4.35;3.30;;;;;;;6.29;78.90;98084.66;1804428;79;21004;-40
2022/01/04 03:55:06;;;;;;;4.05;2.90;;;;;;;6.29;78.82;98092.73;1804502;79;20918;-40
2022/01/04 03:57:35;;;;;;;4.65;2.90;;;;;;;6.24;78.74;98090.34;1804516;79;20993;-40
2022/01/04 04:00:07;;;;;;;5.35;3.27;;;;;;;6.20;78.80;98087.36;1804454;79;21072;-40
2022/01/04 04:02:36;;;;;;;4.17;3.30;;;;;;;6.20;78.79;98094.09;1804506;79;21062;-40
2022/01/04 04:05:05;;;;;;;4.75;3.40;;;;;;;6.18;78.84;98096.39;1804535;79;20922;-40
2022/01/04 04:07:33;;;;;;;4.60;3.40;;;;;;;6.11;78.98;98096.47;1804542;79;20997;-40
2022/01/04 04:10:01;;;;;;;5.25;3.60;;;;;;;6.06;79.09;98099.47;1804480;79;21037;-40
2022/01/04 04:12:27;;;;;;;4.53;3.17;;;;;;;6.08;79.07;98105.84;1804673;79;21109;-40
2022/01/04 04:14:58;;;;;;;4.15;3.47;;;;;;;6.09;79.02;98111.44;1803914;79;21487;-40
2022/01/04 04:17:25;;;;;;;4.80;3.08;;;;;;;6.07;79.05;98112.35;1804624;79;21515;-40
2022/01/04 04:19:51;;;;;;;5.12;3.47;;;;;;;6.04;79.11;98110.39;1805020;79;21546;-40
2022/01/04 04:22:18;;;;;;;4.10;3.27;;;;;;;6.04;79.01;98108.48;1804413;79;21559;-40
2022/01/04 04:24:45;;;;;;;5.67;3.90;;;;;;;6.05;79.02;98110.61;1804699;79;21029;-40
2022/01/04 04:27:13;;;;;;;4.42;3.55;;;;;;;6.04;79.04;98110.39;1804425;79;21261;-40
2022/01/04 04:29:40;;;;;;;5.15;3.75;;;;;;;6.03;79.09;98112.87;1804712;79;21021;-40
2022/01/04 04:32:08;;;;;;;5.87;3.37;;;;;;;6.04;78.99;98108.48;1804473;79;21511;-40
2022/01/04 04:34:37;;;;;;;4.90;3.60;;;;;;;6.10;79.00;98112.97;1804576;79;20990;-40
2022/01/04 04:37:04;;;;;;;5.70;3.60;;;;;;;6.07;79.08;98109.09;1804491;79;21025;-40
2022/01/04 04:39:31;;;;;;;5.70;3.45;;;;;;;6.05;79.15;98128.09;1803907;79;21134;-40
2022/01/04 04:41:58;;;;;;;5.65;3.60;;;;;;;6.03;79.17;98119.59;1797035;79;20945;-40
2022/01/04 04:44:25;;;;;;;5.80;3.58;;;;;;;6.02;79.25;98122.06;1797369;79;20914;-40
2022/01/04 04:46:51;;;;;;;4.95;3.75;;;;;;;5.99;79.39;98128.17;1797199;79;21016;-40
2022/01/04 04:49:18;;;;;;;5.65;3.55;;;;;;;5.96;79.33;98132.91;1797175;79;21037;-40
2022/01/04 04:51:44;;;;;;;5.08;3.70;;;;;;;5.98;79.33;98133.34;1797291;79;21535;-40
2022/01/04 04:54:11;;;;;;;4.92;3.58;;;;;;;6.00;79.33;98131.08;1797071;79;20953;-40
2022/01/04 04:56:42;;;;;;;5.50;3.75;;;;;;;6.02;79.27;98140.90;1797217;79;21774;-40
2022/01/04 04:59:10;;;;;;;4.28;3.67;;;;;;;5.98;79.22;98144.88;1796796;79;21534;-40
2022/01/04 05:01:37;;;;;;;6.35;3.70;;;;;;;5.97;79.20;98140.63;1797222;79;21010;-40
2022/01/04 05:04:04;;;;;;;6.20;3.52;;;;;;;6.00;78.99;98150.66;1797251;79;21969;-40
2022/01/04 05:06:32;;;;;;;4.60;3.70;;;;;;;6.02;78.90;98151.66;1797112;79;20993;-40
2022/01/04 05:08:59;;;;;;;6.00;3.45;;;;;;;6.00;78.83;98148.56;1797190;79;21021;-40
2022/01/04 05:11:26;;;;;;;5.62;3.22;;;;;;;6.00;78.70;98153.95;1797167;79;21408;-40
2022/01/04 05:13:53;;;;;;;5.20;3.70;;;;;;;6.02;78.58;98159.17;1797290;79;21503;-40
2022/01/04 05:16:20;;;;;;;4.65;3.75;;;;;;;6.03;78.45;98151.88;1797130;79;21134;-40
2022/01/04 05:18:47;;;;;;;4.35;3.30;;;;;;;6.01;78.50;98152.79;1797085;79;21508;-40
2022/01/04 05:21:15;;;;;;;4.85;3.02;;;;;;;6.01;78.46;98159.52;1797006;78;20981;-40
2022/01/04 05:23:42;;;;;;;4.10;3.05;;;;;;;6.03;78.30;98156.69;1797126;79;20966;-40
2022/01/04 05:26:09;;;;;;;4.45;3.40;;;;;;;6.06;78.17;98153.27;1797030;79;21026;-40
2022/01/04 05:28:38;;;;;;;4.42;3.10;;;;;;;6.04;78.04;98150.75;1797417;79;21141;-40
2022/01/04 05:31:04;;;;;;;4.75;3.27;;;;;;;6.01;78.00;98151.45;1797374;79;20914;-40
2022/01/04 05:33:32;;;;;;;4.78;3.22;;;;;;;5.99;77.95;98154.52;1797364;79;21071;-40
2022/01/04 05:36:00;;;;;;;4.83;3.05;;;;;;;6.01;77.86;98152.79;1797232;79;21304;-41
2022/01/04 05:38:27;;;;;;;4.28;3.17;;;;;;;6.01;77.83;98159.52;1797442;79;20998;-40
2022/01/04 05:40:54;;;;;;;6.28;3.15;;;;;;;5.95;77.95;98163.66;1805306;79;21117;-40
2022/01/04 05:43:20;;;;;;;4.58;2.90;;;;;;;5.92;77.98;98173.77;1813697;79;20969;-40
2022/01/04 05:45:47;;;;;;;5.95;3.33;;;;;;;5.92;77.94;98179.15;1813760;78;21021;-40
2022/01/04 05:48:13;;;;;;;6.45;3.20;;;;;;;5.94;77.87;98176.89;1813541;79;20890;-40
2022/01/04 05:50:42;;;;;;;4.83;2.80;;;;;;;5.92;77.97;98188.56;1813747;78;21076;-40
2022/01/04 05:53:09;;;;;;;4.10;2.80;;;;;;;5.88;78.11;98187.73;1813595;78;21128;-40
2022/01/04 05:55:35;;;;;;;6.55;3.22;;;;;;;5.88;78.17;98187.73;1813939;78;21577;-40
2022/01/04 05:58:02;;;;;;;4.60;3.02;;;;;;;5.90;78.12;98192.20;1813790;79;20949;-40
2022/01/04 06:00:29;;;;;;;4.45;3.20;;;;;;;5.90;78.08;98188.16;1813680;79;21060;-40
2022/01/04 06:02:58;;;;;;;5.05;3.20;;;;;;;5.86;78.14;98193.98;1813761;79;21071;-40
2022/01/04 06:05:24;;;;;;;5.80;3.02;;;;;;;5.84;78.14;98192.23;1813866;78;21816;-39
2022/01/04 06:07:51;;;;;;;6.50;3.10;;;;;;;5.86;78.08;98197.45;1813748;78;21578;-40
2022/01/04 06:10:18;;;;;;;3.47;2.95;;;;;;;5.89;77.84;98201.39;1813641;79;21024;-40
2022/01/04 06:15:14;;;;;;;3.95;3.00;;;;;;;5.83;77.87;98202.78;1813941;78;20990;-40
2022/01/04 06:17:47;;;;;;;6.45;2.52;;;;;;;5.83;77.82;98212.19;1813758;78;21004;-40
2022/01/04 06:20:19;;;;;;;3.83;2.65;;;;;;;5.87;77.61;98210.37;1813798;79;20910;-39
2022/01/04 06:22:45;;;;;;;5.58;2.77;;;;;;;5.89;77.46;98214.27;1813685;79;20941;-40
2022/01/04 06:25:17;;;;;;;7.10;2.87;;;;;;;5.89;77.40;98213.49;1813831;78;21040;-40
2022/01/04 06:27:45;;;;;;;5.70;2.83;;;;;;;5.89;77.38;98220.22;1814173;78;21519;-40
2022/01/04 06:30:20;;;;;;;4.50;3.33;;;;;;;5.92;77.31;98224.31;1813665;79;21950;-40
2022/01/04 06:32:47;;;;;;;6.87;3.42;;;;;;;5.94;77.28;98226.66;1813991;79;21009;-40
2022/01/04 06:35:14;;;;;;;6.10;3.42;;;;;;;5.94;77.29;98229.34;1813846;79;21076;-40
2022/01/04 06:37:44;;;;;;;6.35;3.10;;;;;;;5.94;77.19;98238.76;1813724;79;21052;-40
2022/01/04 06:40:12;;;;;;;5.47;2.95;;;;;;;5.97;77.16;98239.38;1813367;79;21444;-40
2022/01/04 06:42:40;;;;;;;6.20;2.93;;;;;;;5.98;77.03;98230.97;1804961;79;21109;-40
2022/01/04 06:45:08;;;;;;;5.35;3.55;;;;;;;5.96;76.98;98237.82;1804542;79;21252;-40
2022/01/04 06:47:35;;;;;;;4.22;3.15;;;;;;;5.92;76.94;98230.26;1804680;79;20917;-40
2022/01/04 06:50:03;;;;;;;8.43;3.40;;;;;;;5.90;76.94;98234.67;1804604;79;21562;-40
2022/01/04 06:52:30;;;;;;;5.90;3.67;;;;;;;5.92;76.70;98241.02;1804607;79;21025;-40
2022/01/04 06:54:56;;;;;;;4.92;3.60;;;;;;;5.93;76.57;98243.36;1804752;79;22047;-40
2022/01/04 06:57:23;;;;;;;6.80;3.72;;;;;;;5.89;76.54;98245.77;1804442;79;21546;-40
2022/01/04 06:59:50;;;;;;;5.05;3.40;;;;;;;5.84;76.44;98248.16;1804549;79;21070;-40
2022/01/04 07:02:17;;;;;;;5.58;3.70;;;;;;;5.79;76.46;98246.31;1804485;79;20998;-40
2022/01/04 07:04:44;;;;;;;5.33;3.58;;;;;;;5.81;76.36;98252.12;1804608;79;21009;-40
2022/01/04 07:07:11;;;;;;;7.87;3.70;;;;;;;5.84;76.36;98254.09;1804527;79;21789;-40
2022/01/04 07:09:38;;;;;;;10.03;4.22;;;;;;;5.83;76.41;98255.22;1804639;79;21523;-40
2022/01/04 07:12:06;;;;;;;5.72;4.03;;;;;;;5.80;76.46;98247.87;1804619;79;21045;-40
2022/01/04 07:14:33;;;;;;;4.78;3.70;;;;;;;5.78;76.39;98250.13;1804597;79;21637;-40
2022/01/04 07:17:00;;;;;;;9.25;4.53;;;;;;;5.79;76.26;98251.69;1804491;79;21519;-40
2022/01/04 07:19:27;;;;;;;7.30;4.60;;;;;;;5.79;76.08;98256.50;1804335;79;21123;-40
2022/01/04 07:21:53;;;;;;;6.80;5.10;;;;;;;5.73;76.20;98260.60;1804540;79;20993;-40
2022/01/04 07:24:21;;;;;;;7.78;5.03;;;;;;;5.69;76.41;98266.48;1804527;79;21012;-40
2022/01/04 07:26:48;;;;;;;11.15;5.30;;;;;;;5.62;76.67;98261.72;1804525;79;22125;-40
2022/01/04 07:29:15;;;;;;;8.28;5.42;;;;;;;5.65;76.75;98269.10;1804694;79;21499;-40
2022/01/04 07:31:42;;;;;;;8.68;5.75;;;;;;;5.69;76.69;98271.30;1799624;79;21184;-40
2022/01/04 07:34:09;;;;;;;9.40;5.95;;;;;;;5.68;76.76;98261.66;1804365;79;20974;-40
2022/01/04 07:36:36;;;;;;;10.68;6.12;;;;;;;5.64;76.78;98264.07;1804674;79;20949;-40
2022/01/04 07:39:03;;;;;;;8.03;6.55;;;;;;;5.64;76.92;98266.76;1804556;79;21492;-40
2022/01/04 07:41:33;;;;;;;10.03;6.90;;;;;;;5.68;76.87;98260.88;1804377;79;21003;-40
2022/01/04 07:43:59;;;;;;;11.10;7.37;;;;;;;5.70;76.68;98265.35;1804726;79;21133;-40
2022/01/04 07:46:27;;;;;;;11.25;7.62;;;;;;;5.68;76.69;98265.70;1804609;79;20922;-40
2022/01/04 07:48:54;;;;;;;12.13;6.72;;;;;;;5.65;76.80;98267.76;1804467;79;21798;-40
2022/01/04 07:51:20;;;;;;;10.15;7.40;;;;;;;5.63;76.69;98258.47;1804476;79;21013;-39
2022/01/04 07:53:47;;;;;;;11.78;7.70;;;;;;;5.66;76.69;98257.19;1804721;79;20986;-40
2022/01/04 07:56:13;;;;;;;14.70;7.80;;;;;;;5.68;76.75;98263.57;1804389;79;21167;-40
2022/01/04 07:58:40;;;;;;;12.35;7.70;;;;;;;5.68;76.80;98263.57;1804479;79;20980;-40
2022/01/04 08:01:07;;;;;;;12.37;7.03;;;;;;;5.70;76.73;98258.63;1804540;79;20934;-39
2022/01/04 08:03:34;;;;;;;10.00;6.40;;;;;;;5.76;76.72;98267.20;1804471;79;21013;-40
2022/01/04 08:06:02;;;;;;;11.33;7.17;;;;;;;5.85;76.39;98261.82;1804415;79;21498;-40
2022/01/04 08:08:29;;;;;;;12.00;7.42;;;;;;;5.92;76.23;98257.94;1804543;79;21142;-40
2022/01/04 08:10:57;;;;;;;13.28;7.20;;;;;;;5.99;76.11;98262.69;1804559;79;20926;-40
2022/01/04 08:13:29;;;;;;;9.58;6.37;;;;;;;6.10;76.05;98269.02;1804425;79;21476;-40
2022/01/04 08:15:52;;;;;;;11.93;7.25;;;;;;;6.25;75.55;98264.12;1804636;79;20988;-40
2022/01/04 08:18:18;;;;;;;10.95;6.70;;;;;;;6.41;74.84;98269.41;1804383;79;20977;-40
2022/01/04 08:20:45;;;;;;;12.63;6.85;;;;;;;6.47;74.42;98276.84;1804546;79;21110;-40
2022/01/04 08:23:12;;;;;;;9.50;6.25;;;;;;;6.53;74.19;98271.34;1804425;79;21005;-40
2022/01/04 08:25:39;;;;;;;10.98;6.40;;;;;;;6.65;73.70;98270.97;1804661;79;21538;-40
2022/01/04 08:28:07;;;;;;;11.60;7.05;;;;;;;6.77;73.43;98272.92;1804346;79;21626;-40
2022/01/04 08:30:34;;;;;;;14.07;6.90;;;;;;;6.86;72.76;98272.67;1804398;79;20997;-40
2022/01/04 08:33:00;;;;;;;12.35;6.90;;;;;;;6.87;72.62;98274.23;1804568;79;21119;-40
2022/01/04 08:35:28;;;;;;;11.90;7.15;;;;;;;6.92;72.58;98273.93;1804448;79;21024;-40
2022/01/04 08:37:55;;;;;;;9.83;6.55;;;;;;;6.99;72.38;98272.67;1804413;79;20921;-40
2022/01/04 08:40:22;;;;;;;15.00;6.97;;;;;;;7.11;72.25;98269.80;1804461;79;21012;-40
2022/01/04 08:42:49;;;;;;;13.70;7.10;;;;;;;7.23;71.72;98270.92;1804512;79;20989;-40
2022/01/04 08:45:17;;;;;;;12.55;6.97;;;;;;;7.27;71.42;98267.70;1804578;79;21113;-40
2022/01/04 08:47:44;;;;;;;9.90;6.08;;;;;;;7.29;70.81;98274.09;1804574;79;21562;-40
2022/01/04 08:50:12;;;;;;;15.98;7.45;;;;;;;7.29;71.05;98276.22;1804392;79;21432;-40
2022/01/04 08:52:39;;;;;;;11.48;6.62;;;;;;;7.34;70.91;98285.34;1804505;79;21005;-40
2022/01/04 08:55:07;;;;;;;12.70;7.17;;;;;;;7.34;70.64;98273.20;1804451;79;21048;-40
2022/01/04 08:57:34;;;;;;;14.73;7.85;;;;;;;7.23;70.79;98279.01;1804524;79;21121;-40
2022/01/04 09:00:00;;;;;;;12.88;7.08;;;;;;;7.07;71.17;98288.40;1804422;79;21063;-40
2022/01/04 09:02:28;;;;;;;12.15;7.05;;;;;;;6.91;71.56;98283.14;1804794;79;21657;-40
2022/01/04 09:04:57;;;;;;;13.90;7.15;;;;;;;6.83;71.96;98285.50;1804699;79;21503;-41
2022/01/04 09:07:23;;;;;;;13.40;7.80;;;;;;;6.76;72.40;98288.88;1804550;79;20977;-40
2022/01/04 09:09:50;;;;;;;11.15;7.28;;;;;;;6.62;72.75;98294.02;1804783;79;21142;-40
2022/01/04 09:12:19;;;;;;;12.00;6.97;;;;;;;6.55;73.14;98293.88;1804601;79;21587;-40
2022/01/04 09:20:11;;;;;;;15.45;7.10;;;;;;;6.46;73.37;98295.47;1804596;79;21794;-40
2022/01/04 09:22:40;;;;;;;12.18;6.53;;;;;;;6.07;73.72;98250.91;1804832;79;21409;-40
2022/01/04 09:25:08;;;;;;;15.80;7.00;;;;;;;6.38;73.64;98293.80;1804522;79;20950;-40
2022/01/04 09:27:35;;;;;;;12.05;6.80;;;;;;;6.39;73.67;98293.23;1804784;79;21065;-40
2022/01/04 09:30:05;;;;;;;13.10;7.55;;;;;;;6.35;73.82;98286.42;1804660;79;21004;-40
2022/01/04 09:32:33;;;;;;;8.13;5.10;;;;;;;6.33;74.06;98300.03;1804968;79;21029;-40
2022/01/04 09:35:02;;;;;;;11.88;6.72;;;;;;;6.34;73.98;98285.45;1804437;79;21490;-40
2022/01/04 09:37:29;;;;;;;13.32;6.67;;;;;;;6.43;73.90;98288.69;1804490;79;21083;-40
2022/01/04 09:39:56;;;;;;;17.07;7.12;;;;;;;6.53;73.73;98293.48;1804583;79;21025;-40
2022/01/04 09:42:23;;;;;;;10.65;7.25;;;;;;;6.59;73.74;98293.94;1804504;79;21029;-39
2022/01/04 09:44:50;;;;;;;15.55;7.55;;;;;;;6.63;73.61;98287.50;1804861;79;21072;-40
2022/01/04 09:47:17;;;;;;;14.05;6.75;;;;;;;6.72;73.48;98293.99;1804669;79;21943;-41
2022/01/04 09:49:44;;;;;;;10.18;6.10;;;;;;;6.82;72.95;98297.44;1804680;79;21056;-40
2022/01/04 09:52:10;;;;;;;13.05;6.62;;;;;;;6.87;72.71;98301.17;1804493;79;21014;-41
2022/01/04 09:54:39;;;;;;;12.33;6.80;;;;;;;6.87;72.49;98298.48;1804686;79;20998;-40
2022/01/04 09:57:06;;;;;;;18.30;6.42;;;;;;;6.87;72.33;98295.78;1804549;79;21052;-40
2022/01/04 09:59:33;;;;;;;11.00;6.20;;;;;;;6.88;72.16;98291.92;1804601;79;21210;-40
2022/01/04 10:02:20;;;;;;;15.40;6.70;;;;;;;6.93;72.02;98291.06;1804556;79;21036;-41
2022/01/04 10:04:47;;;;;;;13.35;6.55;;;;;;;7.01;72.01;98297.36;1804718;79;21017;-41
2022/01/04 10:07:14;;;;;;;15.90;6.65;;;;;;;7.07;71.99;98297.23;1804516;79;21000;-40
2022/01/04 10:09:46;;;;;;;13.40;6.87;;;;;;;7.11;72.01;98299.44;1804636;79;21041;-40
2022/01/04 10:12:16;;;;;;;11.93;5.80;;;;;;;7.12;71.91;98296.15;1804634;79;21763;-40
2022/01/04 10:14:45;;;;;;;14.10;6.33;;;;;;;7.19;72.09;98293.01;1804542;79;21056;-40
2022/01/04 10:17:21;;;;;;;17.07;6.62;;;;;;;7.28;71.82;98296.22;1804538;79;20960;-41
2022/01/04 10:19:53;;;;;;;10.18;6.47;;;;;;;7.28;71.41;98297.56;1772493;80;20982;-41
2022/01/04 10:22:27;;;;;;;12.28;6.28;;;;;;;7.29;71.27;98294.30;1772791;81;21088;-41
2022/01/04 10:25:06;;;;;;;12.73;5.28;;;;;;;7.29;70.61;98299.70;1774400;79;21137;-41
2022/01/04 10:27:44;;;;;;;12.05;5.40;;;;;;;7.29;70.55;98292.95;1804645;79;20923;-40
2022/01/04 10:30:28;;;;;;;12.70;5.92;;;;;;;7.31;70.13;98292.78;1804568;79;20990;-40
2022/01/04 10:33:07;;;;;;;9.70;5.60;;;;;;;7.30;69.95;98293.95;1804614;79;21483;-41
2022/01/04 10:35:43;;;;;;;10.08;5.37;;;;;;;7.26;69.49;98286.36;1804750;79;21013;-40
2022/01/04 10:38:31;;;;;;;13.48;5.20;;;;;;;7.24;69.44;98294.62;1804472;79;21119;-41
2022/01/04 10:41:06;;;;;;;9.10;4.95;;;;;;;7.34;69.55;98299.39;1796445;79;21006;-41
2022/01/04 10:43:40;;;;;;;12.58;5.62;;;;;;;7.60;68.77;98295.91;1801092;79;21048;-41
2022/01/04 10:46:08;;;;;;;13.10;5.12;;;;;;;7.89;67.42;98296.45;1792834;80;21652;-40
2022/01/04 10:48:41;;;;;;;11.85;5.10;;;;;;;8.18;67.02;98301.63;1793074;80;21073;-41
2022/01/04 10:51:21;;;;;;;10.50;5.37;;;;;;;8.36;65.92;98297.23;1792843;80;21123;-41
2022/01/04 10:54:06;;;;;;;8.53;5.17;;;;;;;8.41;65.29;98296.11;1727859;83;21773;-41
2022/01/04 10:56:37;;;;;;;10.58;5.25;;;;;;;8.31;64.74;98299.47;1755103;81;21012;-41
2022/01/04 10:59:10;;;;;;;9.88;4.55;;;;;;;8.19;65.08;98294.49;1727835;83;21078;-41
2022/01/04 11:01:44;;;;;;;10.98;4.40;;;;;;;8.15;64.87;98288.85;1755306;81;21610;-41
2022/01/04 11:04:20;;;;;;;11.38;4.75;;;;;;;8.11;64.05;98283.42;1727355;83;21129;-40
2022/01/04 11:06:49;;;;;;;10.72;4.20;;;;;;;8.17;64.29;98283.88;1755078;81;21029;-41
2022/01/04 11:09:16;;;;;;;10.23;4.53;;;;;;;8.38;63.69;98276.58;1727862;83;20986;-41
2022/01/04 11:11:44;;;;;;;8.40;4.15;;;;;;;8.69;63.23;98273.41;1755120;81;21534;-41
2022/01/04 11:14:12;;;;;;;6.50;3.92;;;;;;;9.00;61.15;98271.56;1792949;80;21006;-41
2022/01/04 11:16:42;;;;;;;11.65;4.35;;;;;;;9.22;60.64;98268.41;1792978;79;20997;-41
2022/01/04 11:19:08;;;;;;;9.53;4.25;;;;;;;9.39;60.05;98275.10;1792989;79;21009;-41
2022/01/04 11:21:38;;;;;;;9.85;4.40;;;;;;;9.43;60.00;98282.08;1793000;80;21006;-41
2022/01/04 11:24:07;;;;;;;10.15;4.92;;;;;;;9.32;60.03;98283.94;1793022;80;20965;-41
2022/01/04 11:26:34;;;;;;;11.97;5.25;;;;;;;9.07;59.72;98290.52;1793074;80;21006;-41
2022/01/04 11:29:00;;;;;;;10.20;4.03;;;;;;;8.74;60.99;98285.23;1792961;80;21109;-40
2022/01/04 11:32:02;;;;;;;9.53;4.40;;;;;;;8.46;61.96;98294.42;1793168;80;21005;-41
2022/01/04 11:35:03;;;;;;;8.55;4.40;;;;;;;8.29;62.61;98295.22;1793082;80;20962;-41
2022/01/04 11:37:30;;;;;;;;;;;;;;;8.09;63.42;98299.20;1677792;85;21630;-41
2022/01/04 11:39:58;;;;;;;9.85;5.20;;;;;;;7.89;64.13;98295.70;1675459;85;20238;-41
2022/01/04 11:42:35;;;;;;;9.75;4.62;;;;;;;7.63;64.59;98299.20;1697607;80;21223;-41
2022/01/04 11:45:10;;;;;;;9.38;4.37;;;;;;;7.54;65.13;98297.36;1792736;79;20943;-41
2022/01/04 11:47:37;;;;;;;10.38;4.40;;;;;;;7.45;65.05;98294.16;1793062;80;20962;-41
2022/01/04 11:50:10;;;;;;;8.18;4.35;;;;;;;7.43;65.37;98299.33;1793344;80;20985;-41
2022/01/04 11:52:50;;;;;;;9.75;4.33;;;;;;;7.39;65.24;98289.08;1790656;80;21516;-41
2022/01/04 11:55:24;;;;;;;8.50;3.83;;;;;;;7.34;65.79;98299.39;1793053;80;21631;-41
2022/01/04 11:57:55;;;;;;;10.40;4.83;;;;;;;7.30;66.17;98308.00;1792977;80;21527;-41
2022/01/04 12:00:36;;;;;;;15.03;5.40;;;;;;;7.29;66.55;98303.17;1793230;80;20965;-41